sensor_id;sensor_type;location;lat;lon;timestamp;P1;durP1;ratioP1;P2;durP2;ratioP2
71290;SDS011;59073;51.994;4.448;2022-10-01T00:10:30;2.00;;;2.00;;
71290;SDS011;59073;51.994;4.448;2022-10-01T00:16:31;1.82;;;1.82;;
71290;SDS011;59073;51.994;4.448;2022-10-01T00:23:14;2.06;;;2.06;;
71290;SDS011;59073;51.994;4.448;2022-10-01T00:25:42;1.93;;;1.93;;
71290;SDS011;59073;51.994;4.448;2022-10-01T00:35:30;2.07;;;2.07;;
71290;SDS011;59073;51.994;4.448;2022-10-01T00:45:40;1.74;;;1.74;;
71290;SDS011;59073;51.994;4.448;2022-10-01T01:33:15;1.40;;;1.40;;
71290;SDS011;59073;51.994;4.448;2022-10-01T01:47:01;1.55;;;1.55;;
71290;SDS011;59073;51.994;4.448;2022-10-01T01:49:45;1.52;;;1.52;;
71290;SDS011;59073;51.994;4.448;2022-10-01T01:52:52;1.53;;;1.53;;
71290;SDS011;59073;51.994;4.448;2022-10-01T01:56:15;1.38;;;1.38;;
71290;SDS011;59073;51.994;4.448;2022-10-01T01:59:03;1.46;;;1.46;;
71290;SDS011;59073;51.994;4.448;2022-10-01T02:02:01;1.60;;;1.60;;
71290;SDS011;59073;51.994;4.448;2022-10-01T02:04:36;1.47;;;1.47;;
71290;SDS011;59073;51.994;4.448;2022-10-01T02:08:05;1.76;;;1.76;;
71290;SDS011;59073;51.994;4.448;2022-10-01T02:11:29;1.83;;;1.83;;
71290;SDS011;59073;51.994;4.448;2022-10-01T02:24:51;1.81;;;1.81;;
71290;SDS011;59073;51.994;4.448;2022-10-01T02:28:08;1.80;;;1.80;;
71290;SDS011;59073;51.994;4.448;2022-10-01T02:31:10;1.73;;;1.73;;
71290;SDS011;59073;51.994;4.448;2022-10-01T02:33:55;1.83;;;1.83;;
71290;SDS011;59073;51.994;4.448;2022-10-01T02:43:16;1.58;;;1.58;;
71290;SDS011;59073;51.994;4.448;2022-10-01T02:46:15;1.81;;;1.81;;
71290;SDS011;59073;51.994;4.448;2022-10-01T02:49:14;1.75;;;1.75;;
71290;SDS011;59073;51.994;4.448;2022-10-01T02:58:28;1.74;;;1.74;;
71290;SDS011;59073;51.994;4.448;2022-10-01T03:01:05;1.54;;;1.54;;
71290;SDS011;59073;51.994;4.448;2022-10-01T03:03:34;1.46;;;1.46;;
71290;SDS011;59073;51.994;4.448;2022-10-01T03:08:58;1.41;;;1.41;;
71290;SDS011;59073;51.994;4.448;2022-10-01T03:11:26;1.25;;;1.25;;
71290;SDS011;59073;51.994;4.448;2022-10-01T03:14:02;1.40;;;1.40;;
71290;SDS011;59073;51.994;4.448;2022-10-01T03:16:48;1.37;;;1.37;;
71290;SDS011;59073;51.994;4.448;2022-10-01T03:19:19;1.46;;;1.46;;
71290;SDS011;59073;51.994;4.448;2022-10-01T03:24:55;1.26;;;1.26;;
71290;SDS011;59073;51.994;4.448;2022-10-01T03:34:35;1.07;;;1.07;;
71290;SDS011;59073;51.994;4.448;2022-10-01T03:43:38;1.15;;;1.15;;
71290;SDS011;59073;51.994;4.448;2022-10-01T03:46:40;1.15;;;1.15;;
71290;SDS011;59073;51.994;4.448;2022-10-01T03:49:29;1.03;;;1.03;;
71290;SDS011;59073;51.994;4.448;2022-10-01T03:52:07;1.19;;;1.19;;
71290;SDS011;59073;51.994;4.448;2022-10-01T03:58:05;1.08;;;1.08;;
71290;SDS011;59073;51.994;4.448;2022-10-01T04:00:40;0.96;;;0.96;;
71290;SDS011;59073;51.994;4.448;2022-10-01T04:03:07;1.10;;;1.10;;
71290;SDS011;59073;51.994;4.448;2022-10-01T04:05:33;1.02;;;1.02;;
71290;SDS011;59073;51.994;4.448;2022-10-01T04:07:59;1.22;;;1.22;;
71290;SDS011;59073;51.994;4.448;2022-10-01T04:10:25;1.13;;;1.13;;
71290;SDS011;59073;51.994;4.448;2022-10-01T04:12:50;1.15;;;1.15;;
71290;SDS011;59073;51.994;4.448;2022-10-01T04:15:15;1.18;;;1.18;;
71290;SDS011;59073;51.994;4.448;2022-10-01T04:17:41;1.02;;;1.02;;
71290;SDS011;59073;51.994;4.448;2022-10-01T04:20:06;1.13;;;1.13;;
71290;SDS011;59073;51.994;4.448;2022-10-01T04:22:38;1.22;;;1.22;;
71290;SDS011;59073;51.994;4.448;2022-10-01T04:25:09;1.20;;;1.20;;
71290;SDS011;59073;51.994;4.448;2022-10-01T04:27:36;1.18;;;1.18;;
71290;SDS011;59073;51.994;4.448;2022-10-01T04:30:06;1.19;;;1.19;;
71290;SDS011;59073;51.994;4.448;2022-10-01T04:32:34;1.12;;;1.12;;
71290;SDS011;59073;51.994;4.448;2022-10-01T04:35:01;0.98;;;0.98;;
71290;SDS011;59073;51.994;4.448;2022-10-01T04:37:28;1.03;;;1.03;;
71290;SDS011;59073;51.994;4.448;2022-10-01T04:39:55;1.31;;;1.31;;
71290;SDS011;59073;51.994;4.448;2022-10-01T04:42:21;1.10;;;1.10;;
71290;SDS011;59073;51.994;4.448;2022-10-01T04:44:46;0.99;;;0.99;;
71290;SDS011;59073;51.994;4.448;2022-10-01T04:47:12;1.07;;;1.07;;
71290;SDS011;59073;51.994;4.448;2022-10-01T04:49:37;0.78;;;0.78;;
71290;SDS011;59073;51.994;4.448;2022-10-01T04:52:03;0.97;;;0.97;;
71290;SDS011;59073;51.994;4.448;2022-10-01T04:54:29;0.88;;;0.88;;
71290;SDS011;59073;51.994;4.448;2022-10-01T04:56:58;1.00;;;1.00;;
71290;SDS011;59073;51.994;4.448;2022-10-01T04:59:24;0.80;;;0.80;;
71290;SDS011;59073;51.994;4.448;2022-10-01T05:01:50;0.96;;;0.96;;
71290;SDS011;59073;51.994;4.448;2022-10-01T05:04:15;0.77;;;0.76;;
71290;SDS011;59073;51.994;4.448;2022-10-01T05:06:41;0.94;;;0.93;;
71290;SDS011;59073;51.994;4.448;2022-10-01T05:09:06;0.98;;;0.96;;
71290;SDS011;59073;51.994;4.448;2022-10-01T05:11:31;1.06;;;1.03;;
71290;SDS011;59073;51.994;4.448;2022-10-01T05:13:58;0.87;;;0.83;;
71290;SDS011;59073;51.994;4.448;2022-10-01T05:16:24;0.97;;;0.93;;
71290;SDS011;59073;51.994;4.448;2022-10-01T05:18:50;0.92;;;0.88;;
71290;SDS011;59073;51.994;4.448;2022-10-01T05:21:15;0.76;;;0.71;;
71290;SDS011;59073;51.994;4.448;2022-10-01T05:23:41;1.26;;;1.17;;
71290;SDS011;59073;51.994;4.448;2022-10-01T05:26:06;1.21;;;1.10;;
71290;SDS011;59073;51.994;4.448;2022-10-01T05:28:33;1.22;;;1.10;;
71290;SDS011;59073;51.994;4.448;2022-10-01T05:31:00;1.08;;;0.99;;
71290;SDS011;59073;51.994;4.448;2022-10-01T05:33:28;1.05;;;0.97;;
71290;SDS011;59073;51.994;4.448;2022-10-01T05:35:57;1.09;;;1.00;;
71290;SDS011;59073;51.994;4.448;2022-10-01T05:41:56;1.36;;;1.25;;
71290;SDS011;59073;51.994;4.448;2022-10-01T05:44:37;1.65;;;1.48;;
71290;SDS011;59073;51.994;4.448;2022-10-01T05:47:14;1.31;;;1.19;;
71290;SDS011;59073;51.994;4.448;2022-10-01T05:52:37;1.26;;;1.17;;
71290;SDS011;59073;51.994;4.448;2022-10-01T05:55:36;1.05;;;0.99;;
71290;SDS011;59073;51.994;4.448;2022-10-01T05:58:20;0.95;;;0.90;;
71290;SDS011;59073;51.994;4.448;2022-10-01T06:00:51;0.90;;;0.86;;
71290;SDS011;59073;51.994;4.448;2022-10-01T06:03:32;0.88;;;0.84;;
71290;SDS011;59073;51.994;4.448;2022-10-01T06:06:05;0.98;;;0.93;;
71290;SDS011;59073;51.994;4.448;2022-10-01T06:08:41;1.09;;;1.02;;
71290;SDS011;59073;51.994;4.448;2022-10-01T06:17:34;1.02;;;0.93;;
71290;SDS011;59073;51.994;4.448;2022-10-01T06:20:38;1.34;;;1.23;;
71290;SDS011;59073;51.994;4.448;2022-10-01T06:29:48;1.40;;;1.36;;
71290;SDS011;59073;51.994;4.448;2022-10-01T06:32:59;1.35;;;1.28;;
71290;SDS011;59073;51.994;4.448;2022-10-01T06:35:42;1.15;;;1.08;;
71290;SDS011;59073;51.994;4.448;2022-10-01T06:42:06;1.39;;;1.23;;
71290;SDS011;59073;51.994;4.448;2022-10-01T06:45:30;1.22;;;1.06;;
71290;SDS011;59073;51.994;4.448;2022-10-01T06:59:48;1.52;;;1.26;;
71290;SDS011;59073;51.994;4.448;2022-10-01T07:20:05;2.02;;;1.56;;
71290;SDS011;59073;51.994;4.448;2022-10-01T07:22:37;1.77;;;1.34;;
71290;SDS011;59073;51.994;4.448;2022-10-01T07:25:08;1.91;;;1.40;;
71290;SDS011;59073;51.994;4.448;2022-10-01T07:27:40;2.50;;;1.75;;
71290;SDS011;59073;51.994;4.448;2022-10-01T07:30:06;2.69;;;1.82;;
71290;SDS011;59073;51.994;4.448;2022-10-01T07:32:32;2.32;;;1.54;;
71290;SDS011;59073;51.994;4.448;2022-10-01T07:38:32;3.08;;;1.99;;
71290;SDS011;59073;51.994;4.448;2022-10-01T07:41:04;3.03;;;1.95;;
71290;SDS011;59073;51.994;4.448;2022-10-01T07:43:32;2.53;;;1.60;;
71290;SDS011;59073;51.994;4.448;2022-10-01T07:46:02;2.65;;;1.67;;
71290;SDS011;59073;51.994;4.448;2022-10-01T07:48:36;2.99;;;1.89;;
71290;SDS011;59073;51.994;4.448;2022-10-01T07:51:01;3.07;;;1.96;;
71290;SDS011;59073;51.994;4.448;2022-10-01T07:53:27;3.22;;;2.06;;
71290;SDS011;59073;51.994;4.448;2022-10-01T07:55:59;3.07;;;1.95;;
71290;SDS011;59073;51.994;4.448;2022-10-01T07:58:25;2.70;;;1.70;;
71290;SDS011;59073;51.994;4.448;2022-10-01T08:00:56;3.25;;;2.02;;
71290;SDS011;59073;51.994;4.448;2022-10-01T08:03:24;2.82;;;1.77;;
71290;SDS011;59073;51.994;4.448;2022-10-01T08:06:01;2.26;;;1.43;;
71290;SDS011;59073;51.994;4.448;2022-10-01T08:09:02;2.68;;;1.72;;
71290;SDS011;59073;51.994;4.448;2022-10-01T08:11:27;2.47;;;1.59;;
71290;SDS011;59073;51.994;4.448;2022-10-01T08:13:55;2.57;;;1.64;;
71290;SDS011;59073;51.994;4.448;2022-10-01T08:16:21;2.96;;;1.90;;
71290;SDS011;59073;51.994;4.448;2022-10-01T08:18:46;3.15;;;2.02;;
71290;SDS011;59073;51.994;4.448;2022-10-01T08:21:12;2.39;;;1.54;;
71290;SDS011;59073;51.994;4.448;2022-10-01T08:23:38;2.89;;;1.87;;
71290;SDS011;59073;51.994;4.448;2022-10-01T08:26:05;2.87;;;1.85;;
71290;SDS011;59073;51.994;4.448;2022-10-01T08:28:32;2.26;;;1.44;;
71290;SDS011;59073;51.994;4.448;2022-10-01T08:31:02;3.06;;;1.95;;
71290;SDS011;59073;51.994;4.448;2022-10-01T08:33:31;2.41;;;1.54;;
71290;SDS011;59073;51.994;4.448;2022-10-01T08:35:59;2.69;;;1.73;;
71290;SDS011;59073;51.994;4.448;2022-10-01T08:38:26;2.28;;;1.45;;
71290;SDS011;59073;51.994;4.448;2022-10-01T08:40:51;2.97;;;1.90;;
71290;SDS011;59073;51.994;4.448;2022-10-01T08:43:33;3.63;;;2.28;;
71290;SDS011;59073;51.994;4.448;2022-10-01T08:46:06;3.38;;;2.12;;
71290;SDS011;59073;51.994;4.448;2022-10-01T08:48:44;2.83;;;1.80;;
71290;SDS011;59073;51.994;4.448;2022-10-01T08:54:22;3.52;;;2.18;;
71290;SDS011;59073;51.994;4.448;2022-10-01T08:56:53;3.70;;;2.29;;
71290;SDS011;59073;51.994;4.448;2022-10-01T08:59:38;3.00;;;1.87;;
71290;SDS011;59073;51.994;4.448;2022-10-01T09:02:26;2.83;;;1.78;;
71290;SDS011;59073;51.994;4.448;2022-10-01T09:05:03;3.33;;;2.09;;
71290;SDS011;59073;51.994;4.448;2022-10-01T09:10:42;3.97;;;2.48;;
71290;SDS011;59073;51.994;4.448;2022-10-01T09:13:20;3.93;;;2.44;;
71290;SDS011;59073;51.994;4.448;2022-10-01T09:24:15;2.75;;;1.76;;
71290;SDS011;59073;51.994;4.448;2022-10-01T09:27:26;3.15;;;2.01;;
71290;SDS011;59073;51.994;4.448;2022-10-01T09:29:52;3.17;;;1.99;;
71290;SDS011;59073;51.994;4.448;2022-10-01T09:32:32;3.08;;;1.95;;
71290;SDS011;59073;51.994;4.448;2022-10-01T09:35:50;3.23;;;2.05;;
71290;SDS011;59073;51.994;4.448;2022-10-01T09:38:17;3.45;;;2.19;;
71290;SDS011;59073;51.994;4.448;2022-10-01T09:40:52;3.17;;;2.05;;
71290;SDS011;59073;51.994;4.448;2022-10-01T09:43:24;2.46;;;1.62;;
71290;SDS011;59073;51.994;4.448;2022-10-01T10:06:49;2.42;;;1.55;;
71290;SDS011;59073;51.994;4.448;2022-10-01T10:13:30;2.57;;;1.66;;
71290;SDS011;59073;51.994;4.448;2022-10-01T10:22:46;2.75;;;1.75;;
71290;SDS011;59073;51.994;4.448;2022-10-01T10:32:48;2.88;;;1.80;;
71290;SDS011;59073;51.994;4.448;2022-10-01T10:35:29;3.00;;;1.89;;
71290;SDS011;59073;51.994;4.448;2022-10-01T10:37:59;4.19;;;2.62;;
71290;SDS011;59073;51.994;4.448;2022-10-01T10:43:21;2.45;;;1.52;;
71290;SDS011;59073;51.994;4.448;2022-10-01T10:46:07;2.98;;;1.90;;
71290;SDS011;59073;51.994;4.448;2022-10-01T10:49:08;2.77;;;1.78;;
71290;SDS011;59073;51.994;4.448;2022-10-01T10:52:16;3.27;;;2.06;;
71290;SDS011;59073;51.994;4.448;2022-10-01T10:54:46;2.77;;;1.75;;
71290;SDS011;59073;51.994;4.448;2022-10-01T10:57:32;3.15;;;1.99;;
71290;SDS011;59073;51.994;4.448;2022-10-01T11:03:33;3.37;;;2.13;;
71290;SDS011;59073;51.994;4.448;2022-10-01T11:07:06;2.93;;;1.85;;
71290;SDS011;59073;51.994;4.448;2022-10-01T11:15:40;2.40;;;1.51;;
71290;SDS011;59073;51.994;4.448;2022-10-01T11:40:01;2.89;;;1.86;;
71290;SDS011;59073;51.994;4.448;2022-10-01T11:56:34;3.04;;;1.91;;
71290;SDS011;59073;51.994;4.448;2022-10-01T11:59:26;2.90;;;1.83;;
71290;SDS011;59073;51.994;4.448;2022-10-01T12:05:00;3.00;;;1.88;;
71290;SDS011;59073;51.994;4.448;2022-10-01T12:08:25;3.61;;;2.25;;
71290;SDS011;59073;51.994;4.448;2022-10-01T12:10:37;3.57;;;2.21;;
71290;SDS011;59073;51.994;4.448;2022-10-01T12:13:32;3.10;;;1.92;;
71290;SDS011;59073;51.994;4.448;2022-10-01T12:16:27;3.56;;;2.22;;
71290;SDS011;59073;51.994;4.448;2022-10-01T12:19:32;3.61;;;2.26;;
71290;SDS011;59073;51.994;4.448;2022-10-01T12:22:22;3.27;;;2.02;;
71290;SDS011;59073;51.994;4.448;2022-10-01T12:25:01;3.43;;;2.10;;
71290;SDS011;59073;51.994;4.448;2022-10-01T12:27:46;3.47;;;2.10;;
71290;SDS011;59073;51.994;4.448;2022-10-01T12:30:30;3.35;;;2.04;;
71290;SDS011;59073;51.994;4.448;2022-10-01T12:36:05;2.79;;;1.73;;
71290;SDS011;59073;51.994;4.448;2022-10-01T12:39:29;3.71;;;2.29;;
71290;SDS011;59073;51.994;4.448;2022-10-01T12:42:00;3.53;;;2.18;;
71290;SDS011;59073;51.994;4.448;2022-10-01T12:44:39;3.13;;;1.95;;
71290;SDS011;59073;51.994;4.448;2022-10-01T12:47:31;2.74;;;1.70;;
71290;SDS011;59073;51.994;4.448;2022-10-01T12:53:01;3.09;;;1.91;;
71290;SDS011;59073;51.994;4.448;2022-10-01T12:55:44;3.04;;;1.90;;
71290;SDS011;59073;51.994;4.448;2022-10-01T12:58:32;3.71;;;2.30;;
71290;SDS011;59073;51.994;4.448;2022-10-01T13:04:23;3.14;;;1.93;;
71290;SDS011;59073;51.994;4.448;2022-10-01T13:13:55;3.51;;;2.18;;
71290;SDS011;59073;51.994;4.448;2022-10-01T13:17:14;2.75;;;1.72;;
71290;SDS011;59073;51.994;4.448;2022-10-01T13:20:00;3.46;;;2.14;;
71290;SDS011;59073;51.994;4.448;2022-10-01T13:35:57;4.04;;;2.49;;
71290;SDS011;59073;51.994;4.448;2022-10-01T13:41:47;2.88;;;1.82;;
71290;SDS011;59073;51.994;4.448;2022-10-01T13:44:58;3.29;;;2.05;;
71290;SDS011;59073;51.994;4.448;2022-10-01T13:47:47;3.90;;;2.42;;
71290;SDS011;59073;51.994;4.448;2022-10-01T14:07:50;3.04;;;1.92;;
71290;SDS011;59073;51.994;4.448;2022-10-01T14:10:44;2.98;;;1.89;;
71290;SDS011;59073;51.994;4.448;2022-10-01T14:16:53;3.89;;;2.44;;
71290;SDS011;59073;51.994;4.448;2022-10-01T14:19:22;4.12;;;2.58;;
71290;SDS011;59073;51.994;4.448;2022-10-01T14:25:02;4.45;;;2.78;;
71290;SDS011;59073;51.994;4.448;2022-10-01T14:27:46;3.45;;;2.15;;
71290;SDS011;59073;51.994;4.448;2022-10-01T14:30:26;3.20;;;2.01;;
71290;SDS011;59073;51.994;4.448;2022-10-01T14:39:37;2.78;;;1.73;;
71290;SDS011;59073;51.994;4.448;2022-10-01T14:42:37;2.81;;;1.78;;
71290;SDS011;59073;51.994;4.448;2022-10-01T14:45:15;2.91;;;1.84;;
71290;SDS011;59073;51.994;4.448;2022-10-01T14:50:36;2.53;;;1.62;;
71290;SDS011;59073;51.994;4.448;2022-10-01T14:53:18;2.91;;;1.89;;
71290;SDS011;59073;51.994;4.448;2022-10-01T14:55:51;2.61;;;1.68;;
71290;SDS011;59073;51.994;4.448;2022-10-01T14:58:39;2.44;;;1.58;;
71290;SDS011;59073;51.994;4.448;2022-10-01T15:01:34;2.54;;;1.63;;
71290;SDS011;59073;51.994;4.448;2022-10-01T15:04:18;2.89;;;1.84;;
71290;SDS011;59073;51.994;4.448;2022-10-01T15:06:53;2.55;;;1.62;;
71290;SDS011;59073;51.994;4.448;2022-10-01T15:09:28;3.22;;;2.05;;
71290;SDS011;59073;51.994;4.448;2022-10-01T15:12:12;2.85;;;1.80;;
71290;SDS011;59073;51.994;4.448;2022-10-01T15:21:50;2.65;;;1.66;;
71290;SDS011;59073;51.994;4.448;2022-10-01T15:27:45;2.88;;;1.86;;
71290;SDS011;59073;51.994;4.448;2022-10-01T15:33:53;2.18;;;1.42;;
71290;SDS011;59073;51.994;4.448;2022-10-01T15:36:18;2.98;;;1.95;;
71290;SDS011;59073;51.994;4.448;2022-10-01T15:39:03;2.02;;;1.33;;
71290;SDS011;59073;51.994;4.448;2022-10-01T15:42:05;3.16;;;2.10;;
71290;SDS011;59073;51.994;4.448;2022-10-01T15:45:09;2.32;;;1.51;;
71290;SDS011;59073;51.994;4.448;2022-10-01T15:47:52;2.62;;;1.69;;
71290;SDS011;59073;51.994;4.448;2022-10-01T15:50:24;2.90;;;1.86;;
71290;SDS011;59073;51.994;4.448;2022-10-01T15:52:55;3.21;;;2.06;;
71290;SDS011;59073;51.994;4.448;2022-10-01T15:58:27;2.73;;;1.73;;
71290;SDS011;59073;51.994;4.448;2022-10-01T16:07:26;3.43;;;2.17;;
71290;SDS011;59073;51.994;4.448;2022-10-01T16:13:52;2.80;;;1.83;;
71290;SDS011;59073;51.994;4.448;2022-10-01T16:17:29;2.81;;;1.84;;
71290;SDS011;59073;51.994;4.448;2022-10-01T16:23:45;3.10;;;2.01;;
71290;SDS011;59073;51.994;4.448;2022-10-01T16:26:33;3.47;;;2.28;;
71290;SDS011;59073;51.994;4.448;2022-10-01T16:31:33;2.80;;;1.84;;
71290;SDS011;59073;51.994;4.448;2022-10-01T16:34:08;3.43;;;2.26;;
71290;SDS011;59073;51.994;4.448;2022-10-01T16:39:48;2.92;;;1.94;;
71290;SDS011;59073;51.994;4.448;2022-10-01T16:42:19;3.75;;;2.46;;
71290;SDS011;59073;51.994;4.448;2022-10-01T16:44:51;3.44;;;2.23;;
71290;SDS011;59073;51.994;4.448;2022-10-01T16:47:16;3.17;;;2.05;;
71290;SDS011;59073;51.994;4.448;2022-10-01T16:49:42;2.85;;;1.86;;
71290;SDS011;59073;51.994;4.448;2022-10-01T16:52:10;3.35;;;2.17;;
71290;SDS011;59073;51.994;4.448;2022-10-01T16:54:37;2.55;;;1.66;;
71290;SDS011;59073;51.994;4.448;2022-10-01T16:57:03;3.31;;;2.19;;
71290;SDS011;59073;51.994;4.448;2022-10-01T16:59:28;3.81;;;2.51;;
71290;SDS011;59073;51.994;4.448;2022-10-01T17:02:00;3.39;;;2.26;;
71290;SDS011;59073;51.994;4.448;2022-10-01T17:04:26;2.84;;;1.91;;
71290;SDS011;59073;51.994;4.448;2022-10-01T17:06:55;2.87;;;1.94;;
71290;SDS011;59073;51.994;4.448;2022-10-01T17:09:20;2.85;;;1.93;;
71290;SDS011;59073;51.994;4.448;2022-10-01T17:11:46;2.75;;;1.84;;
71290;SDS011;59073;51.994;4.448;2022-10-01T17:14:13;2.75;;;1.86;;
71290;SDS011;59073;51.994;4.448;2022-10-01T17:16:41;3.27;;;2.22;;
71290;SDS011;59073;51.994;4.448;2022-10-01T17:19:11;2.62;;;1.76;;
71290;SDS011;59073;51.994;4.448;2022-10-01T17:21:37;3.78;;;2.49;;
71290;SDS011;59073;51.994;4.448;2022-10-01T17:24:03;3.22;;;2.12;;
71290;SDS011;59073;51.994;4.448;2022-10-01T17:26:28;3.00;;;2.00;;
71290;SDS011;59073;51.994;4.448;2022-10-01T17:28:54;2.24;;;1.48;;
71290;SDS011;59073;51.994;4.448;2022-10-01T17:31:19;2.37;;;1.59;;
71290;SDS011;59073;51.994;4.448;2022-10-01T17:33:45;2.38;;;1.60;;
71290;SDS011;59073;51.994;4.448;2022-10-01T17:36:11;2.33;;;1.56;;
71290;SDS011;59073;51.994;4.448;2022-10-01T17:38:37;2.55;;;1.71;;
71290;SDS011;59073;51.994;4.448;2022-10-01T17:41:04;1.78;;;1.22;;
71290;SDS011;59073;51.994;4.448;2022-10-01T17:43:30;2.58;;;1.79;;
71290;SDS011;59073;51.994;4.448;2022-10-01T17:45:59;2.57;;;1.78;;
71290;SDS011;59073;51.994;4.448;2022-10-01T17:48:36;1.90;;;1.31;;
71290;SDS011;59073;51.994;4.448;2022-10-01T17:51:43;2.25;;;1.54;;
71290;SDS011;59073;51.994;4.448;2022-10-01T17:54:09;1.88;;;1.30;;
71290;SDS011;59073;51.994;4.448;2022-10-01T17:56:34;1.60;;;1.11;;
71290;SDS011;59073;51.994;4.448;2022-10-01T17:58:59;1.93;;;1.34;;
71290;SDS011;59073;51.994;4.448;2022-10-01T18:01:25;2.08;;;1.47;;
71290;SDS011;59073;51.994;4.448;2022-10-01T18:03:51;1.85;;;1.32;;
71290;SDS011;59073;51.994;4.448;2022-10-01T18:06:21;1.81;;;1.29;;
71290;SDS011;59073;51.994;4.448;2022-10-01T18:08:47;1.65;;;1.17;;
71290;SDS011;59073;51.994;4.448;2022-10-01T18:11:12;1.82;;;1.30;;
71290;SDS011;59073;51.994;4.448;2022-10-01T18:13:38;1.39;;;1.00;;
71290;SDS011;59073;51.994;4.448;2022-10-01T18:16:05;1.97;;;1.43;;
71290;SDS011;59073;51.994;4.448;2022-10-01T18:18:34;1.70;;;1.25;;
71290;SDS011;59073;51.994;4.448;2022-10-01T18:21:00;1.90;;;1.38;;
71290;SDS011;59073;51.994;4.448;2022-10-01T18:23:27;1.77;;;1.31;;
71290;SDS011;59073;51.994;4.448;2022-10-01T18:25:52;1.60;;;1.19;;
71290;SDS011;59073;51.994;4.448;2022-10-01T18:28:18;1.52;;;1.12;;
71290;SDS011;59073;51.994;4.448;2022-10-01T18:30:45;1.87;;;1.33;;
71290;SDS011;59073;51.994;4.448;2022-10-01T18:33:13;1.92;;;1.37;;
71290;SDS011;59073;51.994;4.448;2022-10-01T18:35:40;1.89;;;1.34;;
71290;SDS011;59073;51.994;4.448;2022-10-01T18:38:15;2.00;;;1.44;;
71290;SDS011;59073;51.994;4.448;2022-10-01T18:40:58;2.01;;;1.45;;
71290;SDS011;59073;51.994;4.448;2022-10-01T18:43:31;2.04;;;1.49;;
71290;SDS011;59073;51.994;4.448;2022-10-01T19:06:05;1.87;;;1.45;;
71290;SDS011;59073;51.994;4.448;2022-10-01T19:19:48;2.72;;;2.00;;
71290;SDS011;59073;51.994;4.448;2022-10-01T19:28:51;2.64;;;1.91;;
71290;SDS011;59073;51.994;4.448;2022-10-01T19:31:48;2.83;;;2.06;;
71290;SDS011;59073;51.994;4.448;2022-10-01T19:34:34;2.89;;;2.12;;
71290;SDS011;59073;51.994;4.448;2022-10-01T19:37:10;3.23;;;2.35;;
71290;SDS011;59073;51.994;4.448;2022-10-01T19:39:43;2.95;;;2.15;;
71290;SDS011;59073;51.994;4.448;2022-10-01T19:42:49;2.67;;;1.91;;
71290;SDS011;59073;51.994;4.448;2022-10-01T19:45:23;2.86;;;2.08;;
71290;SDS011;59073;51.994;4.448;2022-10-01T19:48:02;2.65;;;1.93;;
71290;SDS011;59073;51.994;4.448;2022-10-01T19:50:36;2.59;;;1.84;;
71290;SDS011;59073;51.994;4.448;2022-10-01T19:53:11;3.39;;;2.40;;
71290;SDS011;59073;51.994;4.448;2022-10-01T19:55:45;3.19;;;2.29;;
71290;SDS011;59073;51.994;4.448;2022-10-01T19:58:17;2.39;;;1.75;;
71290;SDS011;59073;51.994;4.448;2022-10-01T20:00:45;3.01;;;2.25;;
71290;SDS011;59073;51.994;4.448;2022-10-01T20:03:24;2.50;;;1.88;;
71290;SDS011;59073;51.994;4.448;2022-10-01T20:06:02;2.59;;;1.93;;
71290;SDS011;59073;51.994;4.448;2022-10-01T20:11:08;2.71;;;2.07;;
71290;SDS011;59073;51.994;4.448;2022-10-01T20:22:03;2.56;;;1.92;;
71290;SDS011;59073;51.994;4.448;2022-10-01T20:24:57;2.65;;;2.01;;
71290;SDS011;59073;51.994;4.448;2022-10-01T20:31:28;2.51;;;1.93;;
71290;SDS011;59073;51.994;4.448;2022-10-01T20:36:42;2.78;;;2.06;;
71290;SDS011;59073;51.994;4.448;2022-10-01T20:42:46;2.51;;;1.91;;
71290;SDS011;59073;51.994;4.448;2022-10-01T20:45:16;2.78;;;2.13;;
71290;SDS011;59073;51.994;4.448;2022-10-01T20:48:00;2.72;;;2.12;;
71290;SDS011;59073;51.994;4.448;2022-10-01T20:50:49;2.69;;;2.08;;
71290;SDS011;59073;51.994;4.448;2022-10-01T20:53:25;2.65;;;2.06;;
71290;SDS011;59073;51.994;4.448;2022-10-01T20:56:02;2.82;;;2.19;;
71290;SDS011;59073;51.994;4.448;2022-10-01T21:01:22;2.61;;;2.03;;
71290;SDS011;59073;51.994;4.448;2022-10-01T21:03:59;2.35;;;1.86;;
71290;SDS011;59073;51.994;4.448;2022-10-01T21:06:46;2.49;;;2.00;;
71290;SDS011;59073;51.994;4.448;2022-10-01T21:09:20;2.51;;;2.01;;
71290;SDS011;59073;51.994;4.448;2022-10-01T21:12:03;2.09;;;1.68;;
71290;SDS011;59073;51.994;4.448;2022-10-01T21:20:18;2.67;;;2.05;;
71290;SDS011;59073;51.994;4.448;2022-10-01T21:25:25;2.58;;;2.02;;
71290;SDS011;59073;51.994;4.448;2022-10-01T21:33:52;2.64;;;2.03;;
71290;SDS011;59073;51.994;4.448;2022-10-01T21:36:26;2.97;;;2.33;;
71290;SDS011;59073;51.994;4.448;2022-10-01T21:39:10;2.34;;;1.85;;
71290;SDS011;59073;51.994;4.448;2022-10-01T21:41:59;2.13;;;1.65;;
71290;SDS011;59073;51.994;4.448;2022-10-01T21:44:49;1.89;;;1.43;;
71290;SDS011;59073;51.994;4.448;2022-10-01T21:55:51;1.64;;;1.15;;
71290;SDS011;59073;51.994;4.448;2022-10-01T21:58:44;1.14;;;0.80;;
71290;SDS011;59073;51.994;4.448;2022-10-01T22:01:38;1.55;;;1.08;;
71290;SDS011;59073;51.994;4.448;2022-10-01T22:04:28;1.20;;;0.83;;
71290;SDS011;59073;51.994;4.448;2022-10-01T22:07:04;1.08;;;0.75;;
71290;SDS011;59073;51.994;4.448;2022-10-01T22:09:43;1.25;;;0.86;;
71290;SDS011;59073;51.994;4.448;2022-10-01T22:12:23;1.01;;;0.69;;
71290;SDS011;59073;51.994;4.448;2022-10-01T22:14:54;1.22;;;0.84;;
71290;SDS011;59073;51.994;4.448;2022-10-01T22:17:24;0.85;;;0.60;;
71290;SDS011;59073;51.994;4.448;2022-10-01T22:19:56;1.09;;;0.77;;
71290;SDS011;59073;51.994;4.448;2022-10-01T22:22:30;1.22;;;0.87;;
71290;SDS011;59073;51.994;4.448;2022-10-01T22:25:00;1.15;;;0.82;;
71290;SDS011;59073;51.994;4.448;2022-10-01T22:27:35;1.24;;;0.90;;
71290;SDS011;59073;51.994;4.448;2022-10-01T22:32:41;1.28;;;0.96;;
71290;SDS011;59073;51.994;4.448;2022-10-01T22:35:27;1.78;;;1.32;;
71290;SDS011;59073;51.994;4.448;2022-10-01T22:38:01;1.61;;;1.16;;
71290;SDS011;59073;51.994;4.448;2022-10-01T22:41:00;1.92;;;1.39;;
71290;SDS011;59073;51.994;4.448;2022-10-01T22:43:46;2.00;;;1.44;;
71290;SDS011;59073;51.994;4.448;2022-10-01T22:49:33;2.44;;;1.68;;
71290;SDS011;59073;51.994;4.448;2022-10-01T22:52:38;2.00;;;1.38;;
71290;SDS011;59073;51.994;4.448;2022-10-01T22:56:02;2.04;;;1.42;;
71290;SDS011;59073;51.994;4.448;2022-10-01T23:01:20;2.18;;;1.53;;
71290;SDS011;59073;51.994;4.448;2022-10-01T23:06:59;2.88;;;2.03;;
71290;SDS011;59073;51.994;4.448;2022-10-01T23:12:15;2.42;;;1.69;;
71290;SDS011;59073;51.994;4.448;2022-10-01T23:23:15;2.74;;;1.95;;
71290;SDS011;59073;51.994;4.448;2022-10-01T23:33:57;3.16;;;2.22;;
71290;SDS011;59073;51.994;4.448;2022-10-01T23:39:49;3.47;;;2.45;;
71290;SDS011;59073;51.994;4.448;2022-10-01T23:42:27;3.57;;;2.43;;
71290;SDS011;59073;51.994;4.448;2022-10-01T23:45:01;3.29;;;2.22;;
71290;SDS011;59073;51.994;4.448;2022-10-01T23:47:40;3.31;;;2.21;;
71290;SDS011;59073;51.994;4.448;2022-10-01T23:50:16;3.64;;;2.47;;
71290;SDS011;59073;51.994;4.448;2022-10-01T23:52:56;4.44;;;3.02;;
71290;SDS011;59073;51.994;4.448;2022-10-01T23:55:41;3.45;;;2.35;;
71290;SDS011;59073;51.994;4.448;2022-10-01T23:58:34;3.14;;;2.11;;
